Time;durP1;ratioP1;P1;durP2;ratioP2;P2;SDS_P1;SDS_P2;PMS_P1;PMS_P2;Temp;Humidity;BMP_temperature;BMP_pressure;BME280_temperature;BME280_humidity;BME280_pressure;Samples;Min_cycle;Max_cycle;Signal;HPM_P1;HPM_P2
2022/08/24 00:03:23;;;;;;;5.00;2.45;;;;;;;20.41;88.29;100403.97;10366823;28;20540;-74
2022/08/24 00:08:25;;;;;;;6.25;3.17;;;;;;;20.50;88.93;100420.66;10367762;28;20502;-72
2022/08/24 00:13:26;;;;;;;6.50;3.33;;;;;;;20.56;89.15;100432.44;10365583;28;20050;-71
2022/08/24 00:18:27;;;;;;;7.40;2.90;;;;;;;20.47;88.74;100434.63;10366712;28;20050;-72
2022/08/24 00:23:28;;;;;;;9.65;3.25;;;;;;;20.27;89.08;100400.66;10366453;28;20046;-71
2022/08/24 00:28:29;;;;;;;9.63;3.35;;;;;;;20.28;89.28;100405.00;10366714;28;20042;-72
2022/08/24 00:33:30;;;;;;;8.02;3.03;;;;;;;20.10;89.81;100390.75;10366442;28;20040;-72
2022/08/24 00:38:34;;;;;;;9.30;3.08;;;;;;;19.88;90.18;100364.28;10367026;28;20033;-71
2022/08/24 00:43:35;;;;;;;11.10;2.95;;;;;;;20.17;90.08;100413.88;10365312;28;20119;-72
2022/08/24 00:48:40;;;;;;;20.70;3.17;;;;;;;20.28;91.71;100436.53;10365837;28;20053;-73
2022/08/24 00:53:56;;;;;;;11.75;3.13;;;;;;;20.09;93.78;100403.41;10366138;28;20567;-71
2022/08/24 00:59:15;;;;;;;6.45;2.85;;;;;;;20.20;92.09;100435.00;10366164;28;20044;-71
2022/08/24 01:04:21;;;;;;;7.38;2.85;;;;;;;20.08;92.88;100436.00;10370206;28;20034;-70
2022/08/24 01:09:23;;;;;;;9.30;2.70;;;;;;;19.94;92.74;100408.41;10389036;28;20042;-74
2022/08/24 01:14:24;;;;;;;9.55;2.90;;;;;;;19.55;92.25;100352.03;10373508;28;20049;-71
2022/08/24 01:19:37;;;;;;;10.93;2.72;;;;;;;20.08;96.07;100450.31;10388042;28;20793;-72
2022/08/24 01:24:39;;;;;;;9.68;2.70;;;;;;;20.04;92.60;100446.41;10373241;28;20042;-72
2022/08/24 01:29:41;;;;;;;11.13;2.70;;;;;;;19.98;93.23;100439.22;10371810;28;20042;-73
2022/08/24 01:34:42;;;;;;;5.93;2.30;;;;;;;19.99;93.48;100444.41;10372600;28;20405;-71
2022/08/24 01:39:45;;;;;;;10.27;2.78;;;;;;;19.46;93.73;100364.19;10371531;28;20049;-73
2022/08/24 01:44:46;;;;;;;14.37;3.17;;;;;;;19.37;93.50;100360.16;10372490;28;20132;-72
2022/08/24 01:49:48;;;;;;;11.25;2.95;;;;;;;19.88;93.62;100434.38;10372272;28;20292;-72
2022/08/24 01:54:49;;;;;;;13.45;2.80;;;;;;;19.56;93.72;100394.13;10370235;28;20139;-72
2022/08/24 01:59:51;;;;;;;11.05;2.65;;;;;;;19.82;94.41;100446.91;10371056;28;20140;-71
2022/08/24 02:04:52;;;;;;;9.40;2.67;;;;;;;19.79;94.87;100460.00;10355154;28;20444;-72
2022/08/24 02:09:53;;;;;;;15.15;2.65;;;;;;;19.34;94.90;100376.75;10339760;28;20050;-71
2022/08/24 02:14:53;;;;;;;14.48;2.70;;;;;;;19.74;95.34;100458.00;10329217;28;20065;-73
2022/08/24 02:19:54;;;;;;;14.82;2.70;;;;;;;19.70;95.29;100447.88;10331072;28;20045;-71
2022/08/24 02:24:55;;;;;;;6.30;2.20;;;;;;;19.58;95.23;100421.66;10330233;28;20129;-72
2022/08/24 02:29:56;;;;;;;19.83;3.05;;;;;;;19.59;95.51;100423.31;10330013;28;20042;-71
2022/08/24 02:34:57;;;;;;;21.15;2.97;;;;;;;19.33;95.15;100364.34;10329713;28;20045;-70
2022/08/24 02:39:58;;;;;;;6.22;2.45;;;;;;;19.87;95.39;100454.31;10329571;28;20103;-72
2022/08/24 02:45:00;;;;;;;9.80;2.80;;;;;;;19.88;96.22;100455.94;10330128;28;20058;-72
2022/08/24 02:50:03;;;;;;;11.90;2.80;;;;;;;19.98;96.17;100453.56;10328859;28;20050;-72
2022/08/24 02:55:06;;;;;;;17.20;2.67;;;;;;;19.97;95.10;100434.91;10327638;28;20049;-73
2022/08/24 03:00:11;;;;;;;7.65;2.00;;;;;;;19.74;95.09;100360.13;10328771;28;20043;-72
2022/08/24 03:05:13;;;;;;;11.15;2.35;;;;;;;20.47;93.36;100453.50;10329318;28;20080;-75
2022/08/24 03:10:14;;;;;;;12.63;2.58;;;;;;;20.63;92.30;100431.25;10329389;28;20050;-72
2022/08/24 03:15:16;;;;;;;7.93;2.35;;;;;;;21.06;91.09;100442.81;10329092;28;20412;-72
2022/08/24 03:20:20;;;;;;;7.75;1.85;;;;;;;20.66;89.87;100352.53;10328569;28;20038;-73
2022/08/24 03:25:23;;;;;;;21.90;2.75;;;;;;;21.24;89.34;100453.50;10329451;28;20069;-70
2022/08/24 03:30:24;;;;;;;15.70;2.10;;;;;;;20.86;89.32;100392.69;10328165;28;20051;-74
2022/08/24 03:35:25;;;;;;;9.07;2.10;;;;;;;21.07;89.11;100428.25;10328087;28;20042;-72
2022/08/24 03:40:27;;;;;;;16.75;2.60;;;;;;;21.19;88.70;100431.78;10325935;28;20429;-72
2022/08/24 03:45:29;;;;;;;11.68;1.98;;;;;;;21.55;87.74;100462.31;10327771;28;20042;-73
2022/08/24 03:50:29;;;;;;;10.85;2.70;;;;;;;20.87;86.69;100310.59;10337361;28;20038;-74
2022/08/24 03:55:30;;;;;;;9.20;2.63;;;;;;;21.80;84.08;100362.78;10327961;28;20049;-73
2022/08/24 04:00:31;;;;;;;8.45;2.17;;;;;;;23.10;78.81;100368.22;10326755;28;20086;-72
2022/08/24 04:05:32;;;;;;;12.57;3.75;;;;;;;24.67;74.01;100459.78;10326506;28;20038;-72
2022/08/24 04:10:34;;;;;;;13.30;3.08;;;;;;;25.31;70.44;100477.97;10327162;28;20103;-71
2022/08/24 04:15:39;;;;;;;9.85;2.70;;;;;;;25.92;65.99;100470.13;10326846;28;20541;-72
2022/08/24 04:20:42;;;;;;;21.33;2.42;;;;;;;26.14;65.71;100463.66;10326948;28;20042;-72
2022/08/24 04:25:46;;;;;;;8.37;2.20;;;;;;;26.39;63.44;100466.44;10347460;28;20056;-72
2022/08/24 04:30:51;;;;;;;15.02;2.60;;;;;;;26.54;62.71;100464.84;10364652;28;20512;-72
2022/08/24 04:35:52;;;;;;;6.28;1.60;;;;;;;26.75;61.38;100452.88;10366775;28;20447;-72
2022/08/24 04:40:52;;;;;;;9.98;2.08;;;;;;;26.85;59.40;100474.66;10363562;28;20107;-73
2022/08/24 04:45:53;;;;;;;18.77;2.42;;;;;;;26.92;58.91;100484.47;10364447;28;20077;-72
2022/08/24 04:50:54;;;;;;;15.25;2.97;;;;;;;26.84;57.40;100481.22;10350748;28;20077;-73
2022/08/24 04:55:55;;;;;;;11.07;1.75;;;;;;;26.40;55.73;100449.00;10324544;28;20049;-71
2022/08/24 05:00:56;;;;;;;11.32;2.00;;;;;;;25.99;56.09;100392.84;10325098;28;20054;-73
2022/08/24 05:05:57;;;;;;;13.25;2.25;;;;;;;26.31;55.85;100456.06;10325521;28;20042;-73
2022/08/24 05:10:58;;;;;;;7.03;1.65;;;;;;;26.42;55.32;100467.81;10325356;28;20502;-74
2022/08/24 05:15:59;;;;;;;16.30;2.08;;;;;;;26.40;54.13;100476.25;10325328;28;20152;-72
2022/08/24 05:21:00;;;;;;;17.35;2.22;;;;;;;26.60;53.34;100483.66;10325647;28;20586;-77
2022/08/24 05:26:05;;;;;;;9.25;2.03;;;;;;;26.68;51.30;100471.38;10324889;28;20035;-75
2022/08/24 05:31:11;;;;;;;11.85;1.98;;;;;;;26.82;50.54;100480.66;10324219;28;20046;-75
2022/08/24 05:36:25;;;;;;;17.58;2.15;;;;;;;26.64;49.83;100404.91;10324834;28;20043;-72
2022/08/24 05:41:27;;;;;;;7.88;1.77;;;;;;;27.08;49.32;100420.66;10324691;28;20072;-74
2022/08/24 05:46:30;;;;;;;9.50;1.98;;;;;;;27.58;47.96;100478.09;10324075;28;20133;-74
2022/08/24 05:51:31;;;;;;;9.15;1.70;;;;;;;27.21;47.24;100375.66;10328802;28;20074;-74
2022/08/24 05:56:32;;;;;;;20.00;2.35;;;;;;;27.99;45.16;100446.03;10330561;28;20144;-71
2022/08/24 06:01:34;;;;;;;13.77;2.25;;;;;;;27.86;44.78;100401.06;10330974;28;20203;-72
2022/08/24 06:06:34;;;;;;;11.55;2.13;;;;;;;28.66;44.03;100457.34;10330301;28;20054;-72
2022/08/24 06:11:37;;;;;;;12.57;2.63;;;;;;;28.85;41.49;100444.59;10330887;28;20046;-74
2022/08/24 06:16:42;;;;;;;11.95;2.22;;;;;;;29.17;38.54;100447.88;10330557;28;20129;-70
2022/08/24 06:21:45;;;;;;;15.00;2.13;;;;;;;29.19;38.66;100429.25;10330368;28;20096;-75
2022/08/24 06:32:05;;;;;;;24.20;2.75;;;;;;;29.75;34.16;100431.34;10329404;28;20060;-74
2022/08/24 06:37:06;;;;;;;16.38;2.55;;;;;;;29.90;31.80;100436.63;10330474;28;20047;-69
2022/08/24 06:42:07;;;;;;;26.15;3.33;;;;;;;29.66;31.69;100349.06;10330173;28;20062;-72
2022/08/24 06:47:07;;;;;;;20.83;2.20;;;;;;;30.45;30.92;100404.06;10329023;28;20166;-73
2022/08/24 06:52:10;;;;;;;15.40;2.13;;;;;;;30.65;30.15;100410.28;10329368;28;20514;-74
2022/08/24 06:57:11;;;;;;;13.82;2.47;;;;;;;30.75;30.84;100415.59;10329352;28;20034;-72
2022/08/24 07:02:14;;;;;;;58.42;4.75;;;;;;;31.02;29.42;100401.16;10329433;28;20049;-73
2022/08/24 07:07:16;;;;;;;19.30;2.75;;;;;;;31.21;28.08;100406.53;10328612;28;20562;-72
2022/08/24 07:12:17;;;;;;;27.25;2.85;;;;;;;30.78;28.03;100312.72;10328300;28;20129;-72
2022/08/24 07:17:17;;;;;;;29.55;3.05;;;;;;;31.41;26.77;100404.53;10328005;28;20087;-73
2022/08/24 07:22:18;;;;;;;23.92;2.65;;;;;;;31.52;26.51;100383.97;10326615;28;20047;-74
2022/08/24 07:27:19;;;;;;;18.88;2.50;;;;;;;31.56;25.87;100352.03;10328608;28;20042;-76
2022/08/24 07:32:20;;;;;;;25.95;3.30;;;;;;;31.75;25.29;100382.94;10328275;28;20118;-71
2022/08/24 07:37:21;;;;;;;29.42;4.18;;;;;;;31.88;24.66;100359.28;10328197;28;20181;-74
2022/08/24 07:42:23;;;;;;;17.67;2.15;;;;;;;32.22;24.37;100378.00;10327857;28;20413;-73
2022/08/24 07:47:24;;;;;;;31.17;2.70;;;;;;;32.27;23.84;100358.63;10328298;28;20042;-74
2022/08/24 07:52:25;;;;;;;21.92;3.10;;;;;;;32.28;23.39;100385.00;10327614;28;20405;-70
2022/08/24 07:57:26;;;;;;;20.60;3.25;;;;;;;32.39;23.88;100349.00;10327489;28;20064;-76
2022/08/24 08:02:27;;;;;;;20.67;2.85;;;;;;;31.83;22.69;100258.59;10327989;28;20053;-75
2022/08/24 08:07:27;;;;;;;24.80;3.30;;;;;;;32.57;22.67;100359.00;10327983;28;20127;-77
2022/08/24 08:12:28;;;;;;;17.60;2.83;;;;;;;32.62;22.91;100331.38;10326333;28;20125;-74
2022/08/24 08:17:29;;;;;;;28.88;3.45;;;;;;;32.69;22.42;100348.22;10327402;28;20044;-71
2022/08/24 08:27:49;;;;;;;40.65;4.25;;;;;;;32.81;21.77;100320.13;10326067;28;20103;-73
2022/08/24 08:32:50;;;;;;;21.75;3.00;;;;;;;32.82;22.02;100265.91;10326471;28;20096;-76
2022/08/24 08:37:51;;;;;;;19.30;3.25;;;;;;;33.29;22.13;100302.78;10326959;28;20038;-76
2022/08/24 08:43:00;;;;;;;21.30;4.10;;;;;;;33.58;21.54;100327.00;10326344;28;20073;-75
2022/08/24 08:48:27;;;;;;;33.20;4.32;;;;;;;33.55;21.21;100346.13;10324800;28;20053;-71
2022/08/24 08:54:06;;;;;;;20.88;3.25;;;;;;;33.55;20.46;100333.16;10325916;28;20533;-70
2022/08/24 08:59:31;;;;;;;26.27;4.47;;;;;;;33.62;20.81;100327.97;10361198;28;20049;-73
2022/08/24 09:04:46;;;;;;;24.17;3.47;;;;;;;33.63;19.76;100345.31;10330229;28;20137;-73
2022/08/24 09:09:53;;;;;;;40.55;5.28;;;;;;;33.67;20.54;100327.00;10324982;28;20070;-76
2022/08/24 09:15:09;;;;;;;31.90;5.18;;;;;;;33.82;19.46;100321.00;10324942;28;20061;-74
2022/08/24 09:20:21;;;;;;;43.47;5.28;;;;;;;33.70;20.12;100334.63;10324767;28;20121;-75
2022/08/24 09:25:43;;;;;;;40.42;5.20;;;;;;;33.54;19.58;100297.69;10328640;28;20042;-70
2022/08/24 09:31:02;;;;;;;39.83;5.20;;;;;;;33.99;20.46;100317.44;10331498;28;20074;-77
2022/08/24 09:36:08;;;;;;;23.00;3.25;;;;;;;33.95;19.42;100305.44;10331332;28;20391;-73
2022/08/24 09:41:48;;;;;;;25.80;3.50;;;;;;;34.31;20.01;100312.53;10331973;28;20452;-72
2022/08/24 09:46:58;;;;;;;33.55;3.97;;;;;;;34.18;20.06;100313.56;10331525;28;20084;-71
2022/08/24 09:52:05;;;;;;;35.80;4.07;;;;;;;34.30;20.29;100313.69;10330846;28;20176;-78
2022/08/24 09:57:30;;;;;;;30.90;3.40;;;;;;;34.43;19.68;100318.19;10331328;28;20042;-75
2022/08/24 10:03:06;;;;;;;29.30;4.50;;;;;;;33.79;19.73;100243.72;10331087;28;20053;-74
2022/08/24 10:08:46;;;;;;;27.70;3.42;;;;;;;34.14;19.06;100309.84;10330291;28;20042;-73
2022/08/24 10:14:02;;;;;;;30.25;4.05;;;;;;;33.39;19.23;100203.38;10330144;28;20065;-72
2022/08/24 10:19:17;;;;;;;33.42;4.20;;;;;;;34.23;19.22;100310.63;10330721;28;20042;-74
2022/08/24 10:24:17;;;;;;;53.65;5.15;;;;;;;34.27;19.44;100287.56;10329905;28;20038;-72
2022/08/24 10:29:48;;;;;;;33.22;4.60;;;;;;;33.97;19.71;100247.25;10329695;28;20494;-73
2022/08/24 10:35:11;;;;;;;13.32;3.08;;;;;;;33.95;19.78;100239.28;10329717;28;20042;-72
2022/08/24 10:40:21;;;;;;;16.63;3.30;;;;;;;34.18;18.88;100278.50;10329029;28;20050;-74
2022/08/24 10:46:00;;;;;;;33.72;4.05;;;;;;;34.41;19.24;100281.06;10329231;28;20038;-74
2022/08/24 10:51:27;;;;;;;44.15;5.15;;;;;;;34.52;18.34;100282.28;10339571;28;20053;-71
2022/08/24 10:56:46;;;;;;;33.13;4.22;;;;;;;34.53;18.64;100286.69;10328828;28;20054;-73
2022/08/24 11:02:04;;;;;;;21.20;3.33;;;;;;;34.43;19.20;100264.97;10340132;28;20077;-75
2022/08/24 11:07:13;;;;;;;43.75;4.32;;;;;;;34.39;18.37;100278.63;10332976;28;20481;-73
2022/08/24 11:12:28;;;;;;;36.55;4.13;;;;;;;34.17;17.73;100220.97;10337595;28;20045;-71
2022/08/24 11:17:31;;;;;;;25.83;3.63;;;;;;;34.08;18.57;100212.72;10329195;28;20050;-75
2022/08/24 11:22:55;;;;;;;50.42;5.45;;;;;;;34.32;18.03;100272.81;10332552;28;20597;-74
2022/08/24 11:28:03;;;;;;;34.17;4.22;;;;;;;34.28;18.67;100280.09;10327771;28;20059;-73
2022/08/24 11:33:22;;;;;;;16.45;3.10;;;;;;;33.91;19.77;100207.22;10328043;28;20443;-75
2022/08/24 11:38:33;;;;;;;11.13;2.50;;;;;;;34.37;19.11;100253.31;10335194;28;20409;-72
2022/08/24 11:44:00;;;;;;;17.80;3.22;;;;;;;34.65;18.65;100263.94;10368620;28;20113;-72
2022/08/24 11:49:27;;;;;;;28.30;4.30;;;;;;;34.52;18.74;100283.13;10365863;28;20049;-74
2022/08/24 11:54:44;;;;;;;22.52;3.33;;;;;;;33.77;19.48;100193.63;10368505;28;20038;-75
2022/08/24 12:00:07;;;;;;;18.77;3.20;;;;;;;34.19;18.65;100263.59;10367728;28;20102;-78
2022/08/24 12:05:18;;;;;;;17.38;3.63;;;;;;;33.96;18.74;100229.09;10367601;28;20038;-74
2022/08/24 12:10:25;;;;;;;43.55;4.32;;;;;;;34.14;19.26;100268.50;10368089;28;20042;-76
2022/08/24 12:15:49;;;;;;;23.38;3.90;;;;;;;34.08;18.77;100267.84;10366806;28;20118;-74
2022/08/24 12:20:51;;;;;;;31.25;3.65;;;;;;;33.75;19.25;100259.28;10362310;28;20093;-78
2022/08/24 12:26:00;;;;;;;22.25;3.40;;;;;;;33.53;18.89;100214.22;10340709;28;20516;-72
2022/08/24 12:31:17;;;;;;;20.23;3.83;;;;;;;33.25;18.75;100169.69;10325823;28;20133;-74
2022/08/24 12:36:37;;;;;;;20.38;3.38;;;;;;;33.81;18.69;100242.25;10358461;28;20129;-75
2022/08/24 12:42:14;;;;;;;23.13;3.28;;;;;;;33.76;18.31;100252.63;10345321;28;20469;-74
2022/08/24 12:47:32;;;;;;;24.00;3.83;;;;;;;33.55;18.71;100245.03;10326210;28;20045;-76
2022/08/24 12:52:45;;;;;;;23.40;3.70;;;;;;;33.46;19.33;100238.69;10336220;28;20106;-77
2022/08/24 12:58:04;;;;;;;24.23;3.53;;;;;;;33.52;20.04;100242.13;10363803;28;20119;-79
2022/08/24 13:03:22;;;;;;;18.65;3.25;;;;;;;32.98;18.81;100187.34;10349819;28;20149;-78
2022/08/24 13:08:42;;;;;;;16.38;2.78;;;;;;;32.79;18.31;100167.50;10373102;28;20439;-74
2022/08/24 13:13:47;;;;;;;32.78;3.78;;;;;;;33.08;18.63;100263.25;10370401;28;20070;-74
2022/08/24 13:18:52;;;;;;;20.15;3.00;;;;;;;32.57;19.11;100187.69;10343298;28;20406;-75
2022/08/24 13:24:30;;;;;;;15.00;2.85;;;;;;;33.05;19.37;100253.69;10350694;28;20050;-75
2022/08/24 13:29:33;;;;;;;17.23;3.03;;;;;;;32.85;19.84;100254.28;10370404;28;20081;-77
2022/08/24 13:34:38;;;;;;;27.00;2.72;;;;;;;32.81;18.92;100253.28;10372034;28;20103;-77
2022/08/24 13:39:53;;;;;;;18.55;2.67;;;;;;;32.20;18.89;100190.63;10372465;28;20060;-70
2022/08/24 13:45:24;;;;;;;29.42;3.25;;;;;;;32.63;19.25;100263.44;10358545;28;20495;-72
2022/08/24 13:51:02;;;;;;;25.93;3.77;;;;;;;32.60;19.62;100278.63;10331465;28;20096;-76
2022/08/24 13:56:21;;;;;;;15.48;3.03;;;;;;;32.40;19.94;100266.22;10360223;28;20069;-74
2022/08/24 14:01:31;;;;;;;44.90;4.18;;;;;;;31.81;20.21;100200.41;10367587;28;20041;-82
2022/08/24 14:06:49;;;;;;;40.03;4.53;;;;;;;31.56;20.45;100185.38;10344680;28;20560;-77
2022/08/24 14:12:04;;;;;;;22.45;3.50;;;;;;;31.83;20.40;100244.06;10363107;28;20513;-73
2022/08/24 14:23:02;;;;;;;22.42;3.03;;;;;;;31.52;21.12;100261.25;10329861;28;20090;-73
2022/08/24 14:28:30;;;;;;;56.60;4.63;;;;;;;31.41;21.51;100264.53;10329599;28;20030;-73
2022/08/24 14:33:34;;;;;;;44.83;4.35;;;;;;;31.16;21.52;100256.53;10330255;28;20077;-74
2022/08/24 14:38:55;;;;;;;24.42;3.88;;;;;;;31.07;21.40;100263.06;10330032;28;20042;-77
2022/08/24 14:44:24;;;;;;;31.90;3.85;;;;;;;30.93;21.64;100283.09;10329860;28;20061;-76
2022/08/24 14:50:13;;;;;;;29.52;3.95;;;;;;;30.85;21.36;100283.81;10345921;28;20089;-72
2022/08/24 14:55:43;;;;;;;32.00;3.88;;;;;;;30.59;21.42;100274.41;10537468;28;20048;-77
2022/08/24 15:01:02;;;;;;;51.28;5.07;;;;;;;30.47;22.16;100292.16;10354470;28;20064;-75
2022/08/24 15:06:18;;;;;;;60.40;5.65;;;;;;;30.30;22.09;100288.38;10328570;28;20630;-74
2022/08/24 15:11:26;;;;;;;36.53;4.30;;;;;;;29.82;21.69;100256.56;10328402;28;20063;-73
2022/08/24 15:16:43;;;;;;;32.63;4.00;;;;;;;29.98;22.08;100300.94;10328213;28;20395;-74
2022/08/24 15:21:56;;;;;;;28.38;3.08;;;;;;;29.86;22.23;100306.88;10328396;28;20042;-74
2022/08/24 15:27:09;;;;;;;25.13;3.33;;;;;;;29.38;22.56;100276.06;10327896;28;20049;-76
2022/08/24 15:32:11;;;;;;;;;;;;;;;29.63;22.52;100316.00;10328035;28;20050;-73
2022/08/24 15:37:25;;;;;;;17.17;3.10;;;;;;;28.92;22.66;100271.19;10328255;28;20015;-77
2022/08/24 15:42:29;;;;;;;18.83;3.20;;;;;;;29.06;23.22;100322.19;10327658;28;20054;-70
2022/08/24 15:47:34;;;;;;;37.30;3.80;;;;;;;28.91;23.47;100333.25;10327155;28;20077;-72
2022/08/24 15:52:47;;;;;;;17.48;2.92;;;;;;;28.79;23.60;100336.41;10328651;28;20099;-77
2022/08/24 15:57:48;;;;;;;21.15;2.60;;;;;;;28.53;23.75;100322.16;10326727;28;20048;-77
2022/08/24 16:02:49;;;;;;;10.32;2.33;;;;;;;28.53;23.79;100352.22;10326605;28;20482;-75
2022/08/24 16:08:02;;;;;;;14.75;2.70;;;;;;;28.00;23.84;100297.50;10327196;28;20486;-70
2022/08/24 16:13:25;;;;;;;22.85;2.42;;;;;;;28.21;24.40;100350.03;10326996;28;20078;-77
2022/08/24 16:18:47;;;;;;;13.88;2.28;;;;;;;28.13;24.79;100367.03;10326980;28;20417;-74
2022/08/24 16:23:58;;;;;;;15.17;2.10;;;;;;;27.85;25.17;100338.53;10326114;28;20042;-75
2022/08/24 16:28:59;;;;;;;22.40;3.58;;;;;;;27.79;26.42;100356.03;10327244;28;20038;-74
2022/08/24 16:34:20;;;;;;;36.95;4.18;;;;;;;27.77;29.61;100378.97;10325331;28;20418;-75
2022/08/24 16:39:21;;;;;;;41.08;6.30;;;;;;;27.37;32.64;100366.31;10325676;28;20037;-72
2022/08/24 16:44:22;;;;;;;47.55;6.43;;;;;;;27.28;37.05;100368.84;10353044;28;20069;-77
2022/08/24 16:49:23;;;;;;;42.25;6.68;;;;;;;27.27;39.07;100377.28;10360205;28;20065;-73
2022/08/24 16:54:25;;;;;;;50.85;7.00;;;;;;;27.18;40.76;100387.13;10341443;28;20087;-74
2022/08/24 16:59:32;;;;;;;48.72;6.57;;;;;;;27.09;43.60;100395.84;10349788;28;20049;-71
2022/08/24 17:04:33;;;;;;;45.90;5.68;;;;;;;26.89;43.53;100386.88;10365574;28;20073;-69
2022/08/24 17:09:37;;;;;;;51.13;6.50;;;;;;;26.68;45.58;100400.53;10364932;28;20091;-71
2022/08/24 17:14:38;;;;;;;35.47;5.68;;;;;;;26.40;45.49;100372.72;10366811;28;20045;-70
2022/08/24 17:19:40;;;;;;;38.40;5.97;;;;;;;26.22;46.90;100391.53;10365741;28;20552;-74
2022/08/24 17:24:40;;;;;;;24.60;4.47;;;;;;;26.21;47.82;100396.16;10365502;28;20044;-70
2022/08/24 17:29:43;;;;;;;49.67;5.38;;;;;;;26.03;49.78;100407.56;10363966;28;20525;-72
2022/08/24 17:34:44;;;;;;;42.07;5.27;;;;;;;25.27;49.68;100308.28;10366094;28;20409;-74
2022/08/24 17:39:50;;;;;;;51.25;6.65;;;;;;;25.62;50.31;100381.03;10365106;28;20273;-73
2022/08/24 17:44:51;;;;;;;42.13;4.85;;;;;;;25.35;51.10;100361.34;10366117;28;20118;-71
2022/08/24 17:49:52;;;;;;;19.77;3.08;;;;;;;25.39;51.82;100381.47;10372133;28;20045;-73
2022/08/24 17:54:53;;;;;;;23.05;3.75;;;;;;;25.36;52.04;100406.47;10371368;28;20409;-72
2022/08/24 17:59:53;;;;;;;21.73;3.42;;;;;;;25.23;52.02;100407.78;10371831;28;20046;-72
2022/08/24 18:04:54;;;;;;;28.38;3.83;;;;;;;25.09;52.39;100395.69;10371469;28;20042;-71
2022/08/24 18:09:59;;;;;;;15.60;3.63;;;;;;;24.91;53.11;100392.31;10370407;28;20046;-70
2022/08/24 18:15:00;;;;;;;20.48;3.92;;;;;;;24.71;53.58;100384.88;10370788;28;20066;-72
2022/08/24 18:20:02;;;;;;;19.23;3.90;;;;;;;24.65;54.68;100398.66;10353601;28;20524;-76
2022/08/24 18:25:03;;;;;;;23.08;4.30;;;;;;;24.54;55.16;100393.16;10345429;28;20095;-69
2022/08/24 18:30:06;;;;;;;16.48;3.95;;;;;;;24.42;57.02;100400.66;10329382;28;20053;-71
2022/08/24 18:35:07;;;;;;;31.55;4.43;;;;;;;23.82;56.63;100298.59;10329585;28;20041;-73
2022/08/24 18:40:09;;;;;;;13.95;3.22;;;;;;;24.11;57.68;100373.22;10329344;28;20052;-78
2022/08/24 18:45:11;;;;;;;20.42;3.28;;;;;;;24.15;57.83;100384.38;10334626;28;20041;-72
2022/08/24 18:50:13;;;;;;;21.33;3.78;;;;;;;24.00;58.41;100390.47;10335035;28;20155;-71
2022/08/24 18:55:15;;;;;;;15.85;2.80;;;;;;;23.96;59.56;100392.06;10349262;28;20037;-71
2022/08/24 19:00:16;;;;;;;23.83;3.20;;;;;;;23.74;59.74;100361.41;10361358;28;20050;-72
2022/08/24 19:05:20;;;;;;;15.88;3.40;;;;;;;23.21;60.79;100310.38;10368227;28;20038;-74
2022/08/24 19:10:35;;;;;;;17.77;3.13;;;;;;;23.36;61.41;100331.44;10368077;28;20041;-74
2022/08/24 19:15:36;;;;;;;22.42;3.25;;;;;;;23.62;60.88;100384.03;10365809;28;20375;-73
2022/08/24 19:20:42;;;;;;;18.10;3.03;;;;;;;23.37;62.24;100365.59;10359564;28;20065;-76
2022/08/24 19:25:44;;;;;;;17.98;3.55;;;;;;;23.45;62.32;100386.00;10335319;28;20133;-74
2022/08/24 19:30:45;;;;;;;20.95;3.30;;;;;;;22.72;62.90;100271.50;10328397;28;20038;-74
2022/08/24 19:35:46;;;;;;;13.48;3.45;;;;;;;22.87;63.75;100315.03;10328581;28;20092;-71
2022/08/24 19:40:47;;;;;;;17.20;3.55;;;;;;;23.09;64.47;100358.44;10327123;28;20440;-75
2022/08/24 19:46:22;;;;;;;18.80;3.58;;;;;;;22.62;64.78;100288.44;10328022;28;20042;-73
2022/08/24 19:51:17;;;;;;;8.98;2.92;;;;;;;22.77;64.79;100331.97;10330702;28;20525;-73
2022/08/24 19:56:18;;;;;;;27.35;4.03;;;;;;;23.04;65.23;100387.38;10327507;28;20088;-72
2022/08/24 20:01:28;;;;;;;15.65;2.63;;;;;;;22.94;68.06;100366.31;10327997;28;20379;-71
2022/08/24 20:06:32;;;;;;;15.07;3.08;;;;;;;22.92;66.64;100379.31;10327450;28;20038;-73
2022/08/24 20:11:33;;;;;;;13.25;2.80;;;;;;;22.81;67.84;100374.81;10326088;28;20447;-72
2022/08/24 20:16:37;;;;;;;15.30;3.08;;;;;;;22.26;69.30;100295.19;10327106;28;20176;-71
2022/08/24 20:21:39;;;;;;;17.13;2.95;;;;;;;22.66;69.56;100365.38;10326329;28;20041;-71
2022/08/24 20:26:42;;;;;;;12.05;2.83;;;;;;;22.33;71.09;100323.72;10326178;28;20565;-73
2022/08/24 20:31:44;;;;;;;9.60;3.17;;;;;;;22.55;70.59;100363.56;10326865;28;20070;-74
2022/08/24 20:36:48;;;;;;;19.75;2.97;;;;;;;22.44;72.82;100368.00;10326816;28;20387;-74
2022/08/24 20:41:51;;;;;;;10.75;3.22;;;;;;;22.23;71.98;100338.97;10324319;28;20058;-72
2022/08/24 20:46:53;;;;;;;22.08;2.63;;;;;;;21.83;72.41;100278.47;10325592;28;20049;-73
2022/08/24 20:51:54;;;;;;;12.45;2.97;;;;;;;21.64;72.28;100250.84;10325936;28;20038;-72
2022/08/24 20:56:55;;;;;;;8.15;2.65;;;;;;;22.23;72.77;100350.63;10326488;28;20121;-70
2022/08/24 21:01:55;;;;;;;7.70;2.75;;;;;;;21.92;72.62;100318.66;10325286;28;20044;-71
2022/08/24 21:06:56;;;;;;;13.05;3.00;;;;;;;22.09;72.54;100355.47;10325737;28;20046;-72
2022/08/24 21:11:57;;;;;;;14.38;2.85;;;;;;;21.88;72.40;100324.53;10326082;28;20455;-73
2022/08/24 21:16:59;;;;;;;13.18;2.95;;;;;;;22.07;72.39;100352.19;10324966;28;20449;-72
2022/08/24 21:22:00;;;;;;;9.43;2.65;;;;;;;22.02;72.21;100348.59;10329959;28;20046;-71
2022/08/24 21:27:01;;;;;;;13.05;2.83;;;;;;;21.79;71.95;100307.06;10332374;28;20053;-72
2022/08/24 21:37:22;;;;;;;6.80;2.28;;;;;;;21.51;71.41;100255.72;10331514;28;20034;-72
2022/08/24 21:42:22;;;;;;;11.02;2.40;;;;;;;21.56;71.32;100272.84;10332124;28;20061;-70
2022/08/24 21:47:24;;;;;;;9.93;2.60;;;;;;;21.42;71.04;100250.72;10331076;28;20099;-70
2022/08/24 21:52:24;;;;;;;8.23;2.45;;;;;;;21.88;70.75;100335.34;10331847;28;20046;-71
2022/08/24 21:57:28;;;;;;;9.52;2.08;;;;;;;21.83;70.42;100327.16;10329651;28;20038;-71
2022/08/24 22:02:29;;;;;;;;;;;;;;;21.94;69.46;100332.75;10332224;28;20049;-71
2022/08/24 22:07:30;;;;;;;9.95;2.40;;;;;;;21.37;68.94;100271.41;10331716;28;20284;-70
2022/08/24 22:12:31;;;;;;;13.75;2.88;;;;;;;21.56;68.73;100299.06;10330284;28;20505;-71
2022/08/24 22:17:32;;;;;;;13.60;2.97;;;;;;;21.49;68.38;100298.41;10345513;28;20038;-72
2022/08/24 22:22:33;;;;;;;7.72;2.53;;;;;;;21.42;68.04;100283.16;10359157;28;20072;-71
2022/08/24 22:27:34;;;;;;;11.40;2.58;;;;;;;21.50;67.63;100300.03;10376230;28;20104;-71
2022/08/24 22:32:35;;;;;;;27.85;3.03;;;;;;;21.43;67.23;100286.66;10330435;28;20099;-72
2022/08/24 22:37:35;;;;;;;15.68;2.42;;;;;;;21.50;66.58;100308.13;10329487;28;20038;-72
2022/08/24 22:42:37;;;;;;;11.68;2.13;;;;;;;20.97;65.74;100210.94;10330272;28;20085;-70
2022/08/24 22:47:38;;;;;;;5.43;2.05;;;;;;;21.51;65.66;100299.81;10329397;28;20175;-71
2022/08/24 22:52:38;;;;;;;12.55;2.53;;;;;;;21.41;64.97;100288.78;10329734;28;20167;-71
2022/08/24 22:57:39;;;;;;;6.63;2.20;;;;;;;20.91;64.54;100208.34;10329455;28;20409;-71
2022/08/24 23:02:40;;;;;;;8.27;2.45;;;;;;;21.29;63.88;100269.88;10328708;28;20049;-70
2022/08/24 23:07:41;;;;;;;10.10;1.88;;;;;;;21.36;63.56;100278.72;10329222;28;20133;-70
2022/08/24 23:12:42;;;;;;;9.82;2.30;;;;;;;21.34;63.24;100275.38;10328476;28;20042;-71
2022/08/24 23:17:44;;;;;;;11.50;2.25;;;;;;;21.27;63.06;100272.03;10329372;28;20038;-71
2022/08/24 23:22:47;;;;;;;9.77;2.10;;;;;;;21.23;63.00;100268.13;10328106;28;20133;-70
2022/08/24 23:27:47;;;;;;;9.60;2.23;;;;;;;21.18;62.71;100262.66;10328219;28;20042;-70
2022/08/24 23:32:48;;;;;;;12.57;2.85;;;;;;;21.25;62.72;100274.13;10328523;28;20048;-71
2022/08/24 23:37:49;;;;;;;6.80;2.35;;;;;;;21.10;62.86;100244.13;10328045;28;20118;-70
2022/08/24 23:42:50;;;;;;;9.30;2.05;;;;;;;20.63;63.02;100165.94;10328081;28;20058;-70